Time;durP1;ratioP1;P1;durP2;ratioP2;P2;SDS_P1;SDS_P2;PMS_P1;PMS_P2;Temp;Humidity;BMP_temperature;BMP_pressure;BME280_temperature;BME280_humidity;BME280_pressure;Samples;Min_cycle;Max_cycle;Signal;HPM_P1;HPM_P2
2022/11/28 00:00:35;;;;;;;11.35;6.85;;;7.10;99.90;;;;;;5051824;28;20218;-46
2022/11/28 00:03:01;;;;;;;12.18;6.13;;;7.10;99.90;;;;;;5052087;28;20182;-46
2022/11/28 00:05:27;;;;;;;9.77;6.97;;;7.10;99.90;;;;;;5051685;28;20249;-46
2022/11/28 00:07:52;;;;;;;10.25;7.15;;;7.10;99.90;;;;;;5052174;28;20215;-46
2022/11/28 00:10:18;;;;;;;10.45;6.50;;;7.10;99.90;;;;;;5051712;28;20170;-46
2022/11/28 00:12:43;;;;;;;10.98;6.90;;;7.10;99.90;;;;;;5051759;28;20170;-46
2022/11/28 00:15:10;;;;;;;10.07;6.90;;;7.10;99.90;;;;;;5050992;28;20163;-46
2022/11/28 00:17:35;;;;;;;9.32;7.28;;;7.10;99.90;;;;;;5051536;28;20230;-46
2022/11/28 00:20:01;;;;;;;10.52;6.70;;;7.10;99.90;;;;;;5051885;28;20240;-46
2022/11/28 00:22:28;;;;;;;10.65;6.72;;;7.00;99.90;;;;;;5052680;28;20176;-46
2022/11/28 00:24:54;;;;;;;10.85;7.10;;;7.10;99.90;;;;;;5058768;28;20258;-46
2022/11/28 00:27:20;;;;;;;11.25;6.82;;;7.10;99.90;;;;;;5058114;28;20245;-46
2022/11/28 00:29:45;;;;;;;10.32;6.45;;;7.10;99.90;;;;;;5058227;28;20562;-46
2022/11/28 00:32:11;;;;;;;14.35;7.22;;;7.10;99.90;;;;;;5058244;28;20162;-47
2022/11/28 00:34:36;;;;;;;11.50;6.03;;;7.00;99.90;;;;;;5058264;28;20230;-46
2022/11/28 00:37:02;;;;;;;9.52;7.43;;;7.00;99.90;;;;;;5058046;28;20248;-46
2022/11/28 00:39:28;;;;;;;9.90;7.22;;;7.00;99.90;;;;;;5057989;28;20180;-46
2022/11/28 00:41:53;;;;;;;8.15;6.53;;;7.00;99.90;;;;;;5058540;28;20162;-45
2022/11/28 00:44:19;;;;;;;10.52;6.05;;;7.10;99.90;;;;;;5058095;28;20173;-46
2022/11/28 00:46:45;;;;;;;13.73;6.57;;;7.00;99.90;;;;;;5058104;28;20173;-46
2022/11/28 00:49:10;;;;;;;13.18;7.30;;;7.00;99.90;;;;;;5057999;28;20163;-45
2022/11/28 00:51:37;;;;;;;10.15;6.63;;;6.90;99.90;;;;;;5058389;28;20217;-46
2022/11/28 00:54:04;;;;;;;10.02;6.93;;;6.90;99.90;;;;;;5058243;28;20236;-45
2022/11/28 00:56:33;;;;;;;12.27;6.55;;;6.90;99.90;;;;;;5057770;28;20230;-46
2022/11/28 00:58:59;;;;;;;10.30;6.65;;;7.00;99.90;;;;;;5058031;28;20175;-45
2022/11/28 01:01:36;;;;;;;9.68;6.47;;;7.00;99.90;;;;;;5036818;28;20678;-46
2022/11/28 01:04:06;;;;;;;11.32;6.63;;;7.00;99.90;;;;;;5037633;28;20668;-46
2022/11/28 01:06:34;;;;;;;9.38;6.60;;;6.90;99.90;;;;;;5037744;28;20170;-46
2022/11/28 01:09:05;;;;;;;10.95;6.68;;;6.90;99.90;;;;;;5038232;28;20174;-46
2022/11/28 01:11:32;;;;;;;8.85;6.63;;;6.90;99.90;;;;;;5038178;28;20294;-46
2022/11/28 01:14:00;;;;;;;11.25;6.95;;;6.90;99.90;;;;;;5037841;28;20250;-46
2022/11/28 01:16:26;;;;;;;8.93;6.80;;;6.90;99.90;;;;;;5037941;28;22553;-46
2022/11/28 01:18:52;;;;;;;10.40;6.70;;;7.00;99.90;;;;;;5038162;28;20697;-48
2022/11/28 01:21:19;;;;;;;10.23;6.75;;;7.00;99.90;;;;;;5037991;28;20190;-45
2022/11/28 01:23:44;;;;;;;10.38;6.93;;;6.90;99.90;;;;;;5037706;28;20233;-46
2022/11/28 01:26:16;;;;;;;13.00;7.43;;;6.90;99.90;;;;;;5038022;28;20164;-46
2022/11/28 01:28:41;;;;;;;9.85;6.72;;;6.90;99.90;;;;;;5037827;28;20619;-46
2022/11/28 01:31:10;;;;;;;12.80;7.32;;;6.90;99.90;;;;;;5037651;28;20174;-46
2022/11/28 01:33:35;;;;;;;13.23;7.68;;;6.90;99.90;;;;;;5037466;28;20167;-47
2022/11/28 01:36:01;;;;;;;12.32;7.72;;;6.80;99.90;;;;;;5033400;28;20221;-46
2022/11/28 01:38:27;;;;;;;9.95;7.13;;;6.90;99.90;;;;;;5034499;28;20289;-46
2022/11/28 01:40:53;;;;;;;9.95;7.22;;;6.90;99.90;;;;;;5034915;28;20246;-46
2022/11/28 01:43:19;;;;;;;10.07;7.05;;;6.90;99.90;;;;;;5034380;28;20203;-48
2022/11/28 01:45:45;;;;;;;12.02;7.30;;;6.90;99.90;;;;;;5034615;28;20206;-46
2022/11/28 01:48:15;;;;;;;13.55;7.63;;;6.80;99.90;;;;;;5034388;28;20170;-47
2022/11/28 01:50:44;;;;;;;11.43;7.30;;;6.90;99.90;;;;;;5034322;28;20179;-46
2022/11/28 01:53:12;;;;;;;11.88;6.88;;;6.90;99.90;;;;;;5034545;28;20190;-46
2022/11/28 01:55:50;;;;;;;10.70;6.80;;;7.00;99.90;;;;;;5034290;28;20168;-45
2022/11/28 01:58:16;;;;;;;10.52;8.20;;;6.90;99.90;;;;;;5034349;28;20218;-46
2022/11/28 02:00:41;;;;;;;10.90;6.97;;;6.90;99.90;;;;;;5042346;28;20556;-46
2022/11/28 02:03:13;;;;;;;13.88;7.70;;;6.90;99.90;;;;;;5054027;28;20198;-46
2022/11/28 02:05:39;;;;;;;9.60;6.90;;;7.00;99.90;;;;;;5054191;28;20171;-47
2022/11/28 02:08:06;;;;;;;9.43;6.63;;;7.00;99.90;;;;;;5054162;28;20185;-47
2022/11/28 02:10:42;;;;;;;11.57;7.22;;;6.90;99.90;;;;;;5053850;28;20634;-45
2022/11/28 02:13:12;;;;;;;13.82;7.13;;;7.00;99.90;;;;;;5053833;28;20162;-45
2022/11/28 02:15:55;;;;;;;9.65;6.65;;;7.10;99.90;;;;;;5052940;28;20201;-49
2022/11/28 02:18:29;;;;;;;10.40;6.95;;;7.00;99.90;;;;;;5054128;28;20221;-47
2022/11/28 02:21:23;;;;;;;14.10;7.68;;;7.10;99.90;;;;;;5035798;28;20522;-46
2022/11/28 02:24:19;;;;;;;10.48;7.38;;;7.10;99.90;;;;;;5053550;28;20187;-46
2022/11/28 02:27:07;;;;;;;12.68;7.53;;;7.10;99.90;;;;;;5053536;28;20170;-51
2022/11/28 02:30:01;;;;;;;10.90;7.05;;;7.10;99.90;;;;;;5053625;28;20189;-51
2022/11/28 02:32:43;;;;;;;11.50;6.80;;;7.10;99.90;;;;;;5053392;28;20199;-46
2022/11/28 02:35:36;;;;;;;11.10;7.00;;;7.10;99.90;;;;;;5053368;28;20169;-51
2022/11/28 02:38:25;;;;;;;10.57;6.70;;;7.10;99.90;;;;;;5053233;28;20206;-47
2022/11/28 02:41:02;;;;;;;8.65;6.82;;;7.10;99.90;;;;;;5053776;28;20159;-46
2022/11/28 02:43:48;;;;;;;11.00;6.97;;;7.10;99.90;;;;;;5053444;28;20193;-46
2022/11/28 02:46:19;;;;;;;9.20;6.82;;;7.00;99.90;;;;;;5052834;28;20177;-47
2022/11/28 02:49:22;;;;;;;11.93;6.85;;;7.10;99.90;;;;;;5053219;28;21234;-46
2022/11/28 02:51:54;;;;;;;10.35;7.28;;;7.10;99.90;;;;;;4972383;28;20200;-46
2022/11/28 02:54:22;;;;;;;10.85;7.35;;;7.10;99.90;;;;;;5039850;28;20549;-48
2022/11/28 02:56:49;;;;;;;10.18;6.50;;;7.10;99.90;;;;;;5052769;28;20666;-49
2022/11/28 02:59:36;;;;;;;13.90;7.97;;;7.10;99.90;;;;;;5052834;28;20167;-47
2022/11/28 03:02:08;;;;;;;12.13;6.72;;;7.10;99.90;;;;;;5052657;28;20214;-48
2022/11/28 03:05:01;;;;;;;12.30;7.20;;;7.10;99.90;;;;;;5052765;28;20175;-46
2022/11/28 03:07:30;;;;;;;10.68;7.10;;;7.10;99.90;;;;;;5052956;28;20167;-48
2022/11/28 03:10:17;;;;;;;11.50;7.50;;;7.10;99.90;;;;;;5052804;28;20177;-48
2022/11/28 03:12:51;;;;;;;12.07;7.03;;;7.00;99.90;;;;;;5052646;28;20178;-51
2022/11/28 03:15:22;;;;;;;14.15;7.65;;;7.00;99.90;;;;;;5052846;28;20178;-48
2022/11/28 03:18:09;;;;;;;11.50;6.72;;;7.00;99.90;;;;;;5052514;28;20199;-46
2022/11/28 03:20:55;;;;;;;13.85;7.03;;;7.00;99.90;;;;;;5052559;28;20204;-47
2022/11/28 03:23:42;;;;;;;12.35;7.13;;;7.00;99.90;;;;;;5052729;28;20170;-46
2022/11/28 03:26:23;;;;;;;9.57;6.63;;;7.00;99.90;;;;;;5039250;28;20181;-46
2022/11/28 03:28:53;;;;;;;10.02;7.32;;;7.00;99.90;;;;;;5052346;28;20166;-46
2022/11/28 03:31:23;;;;;;;8.93;6.68;;;7.10;99.90;;;;;;5052309;28;20158;-49
2022/11/28 03:33:58;;;;;;;16.00;6.90;;;7.10;99.90;;;;;;5052174;28;20163;-48
2022/11/28 03:36:59;;;;;;;12.65;7.63;;;7.00;99.90;;;;;;5052520;28;20170;-48
2022/11/28 03:39:31;;;;;;;12.70;7.80;;;7.00;99.90;;;;;;5041504;28;20189;-46
2022/11/28 03:42:04;;;;;;;9.50;7.00;;;7.10;99.90;;;;;;5034425;28;20167;-46
2022/11/28 03:44:37;;;;;;;9.75;6.80;;;7.00;99.90;;;;;;5052427;28;20178;-46
2022/11/28 03:47:04;;;;;;;10.18;6.70;;;7.10;99.90;;;;;;5052157;28;20177;-46
2022/11/28 03:49:37;;;;;;;9.68;7.40;;;7.00;99.90;;;;;;5034331;28;20631;-46
2022/11/28 03:52:10;;;;;;;11.00;7.45;;;7.10;99.90;;;;;;5051952;28;20251;-46
2022/11/28 03:54:51;;;;;;;11.13;7.15;;;7.10;99.90;;;;;;5051859;28;20167;-46
2022/11/28 03:57:31;;;;;;;12.05;6.78;;;7.00;99.90;;;;;;5051520;28;20632;-46
2022/11/28 03:59:59;;;;;;;11.15;6.70;;;7.00;99.90;;;;;;5051709;28;20650;-46
2022/11/28 04:02:54;;;;;;;12.50;6.05;;;7.00;99.90;;;;;;5051915;28;20258;-46
2022/11/28 04:05:44;;;;;;;10.63;6.75;;;7.10;99.90;;;;;;5052432;28;20249;-45
2022/11/28 04:08:24;;;;;;;10.38;6.90;;;7.00;99.90;;;;;;5051770;28;20174;-46
2022/11/28 04:11:07;;;;;;;9.52;6.10;;;7.00;99.90;;;;;;5052028;28;20162;-46
2022/11/28 04:13:48;;;;;;;11.00;7.13;;;7.10;99.90;;;;;;5051759;28;20220;-46
2022/11/28 04:16:40;;;;;;;10.57;7.82;;;7.00;99.90;;;;;;5051542;28;20166;-46
2022/11/28 04:19:32;;;;;;;10.50;6.70;;;7.00;99.90;;;;;;5043054;28;20186;-46
2022/11/28 04:22:06;;;;;;;12.98;7.15;;;7.00;99.90;;;;;;5051594;28;20188;-46
2022/11/28 04:24:47;;;;;;;10.02;6.68;;;6.90;99.90;;;;;;5051551;28;20655;-46
2022/11/28 04:27:22;;;;;;;10.60;6.40;;;7.00;99.90;;;;;;5033644;28;20174;-46
2022/11/28 04:29:53;;;;;;;14.20;6.90;;;6.90;99.90;;;;;;5051458;28;20180;-46
2022/11/28 04:32:21;;;;;;;10.20;7.10;;;7.00;99.90;;;;;;5051357;28;20162;-46
2022/11/28 04:34:52;;;;;;;12.02;7.80;;;7.00;99.90;;;;;;5051320;28;20232;-45
2022/11/28 04:37:20;;;;;;;11.35;7.03;;;7.00;99.90;;;;;;5051083;28;20232;-46
2022/11/28 04:39:48;;;;;;;9.93;7.47;;;6.90;99.90;;;;;;5051377;28;20162;-48
2022/11/28 04:42:29;;;;;;;9.93;7.40;;;6.90;99.90;;;;;;5051423;28;20657;-47
2022/11/28 04:45:06;;;;;;;11.15;7.20;;;7.00;99.90;;;;;;5051220;28;20225;-46
2022/11/28 04:47:32;;;;;;;9.25;7.47;;;7.00;99.90;;;;;;5050759;28;20228;-45
2022/11/28 04:49:58;;;;;;;9.23;6.82;;;7.00;99.90;;;;;;5051239;28;20163;-46
2022/11/28 04:52:38;;;;;;;11.38;6.93;;;7.00;99.90;;;;;;5051656;28;20209;-46
2022/11/28 04:55:27;;;;;;;10.55;6.57;;;7.10;99.90;;;;;;5051540;28;20181;-46
2022/11/28 04:58:01;;;;;;;11.80;7.40;;;7.10;99.90;;;;;;5051477;28;20202;-46
2022/11/28 05:00:27;;;;;;;12.73;7.32;;;7.00;99.90;;;;;;5050995;28;20252;-46
2022/11/28 05:02:53;;;;;;;16.10;8.25;;;7.00;99.90;;;;;;5051577;28;20202;-46
2022/11/28 05:05:24;;;;;;;12.75;7.32;;;7.10;99.90;;;;;;5051647;28;20291;-46
2022/11/28 05:07:52;;;;;;;12.90;8.18;;;7.10;99.90;;;;;;5051630;28;20171;-46
2022/11/28 05:10:18;;;;;;;12.25;7.75;;;7.00;99.90;;;;;;5054284;28;20242;-46
2022/11/28 05:12:44;;;;;;;10.52;7.07;;;7.10;99.90;;;;;;5054978;28;20228;-46
2022/11/28 05:15:10;;;;;;;12.15;7.55;;;7.00;99.90;;;;;;5054927;28;20202;-46
2022/11/28 05:17:37;;;;;;;11.65;7.97;;;7.10;99.90;;;;;;5055058;28;20221;-46
2022/11/28 05:20:03;;;;;;;9.82;8.25;;;7.10;99.90;;;;;;5054943;28;20167;-46
2022/11/28 05:22:29;;;;;;;11.73;7.57;;;7.00;99.90;;;;;;5054654;28;20166;-46
2022/11/28 05:24:54;;;;;;;9.27;6.43;;;7.00;99.90;;;;;;5054692;28;20163;-46
2022/11/28 05:27:20;;;;;;;11.43;7.43;;;7.00;99.90;;;;;;5055052;28;20163;-46
2022/11/28 05:29:45;;;;;;;9.57;6.90;;;7.00;99.90;;;;;;5054637;28;20194;-47
2022/11/28 05:32:12;;;;;;;11.20;7.25;;;7.00;99.90;;;;;;5054523;28;20175;-46
2022/11/28 05:34:38;;;;;;;12.20;7.05;;;7.00;99.90;;;;;;5054522;28;20194;-46
2022/11/28 05:37:04;;;;;;;10.77;7.65;;;7.00;99.90;;;;;;5054334;28;20633;-46
2022/11/28 05:39:31;;;;;;;9.32;7.13;;;7.00;99.90;;;;;;5065392;28;20182;-47
2022/11/28 05:41:57;;;;;;;14.40;7.60;;;6.90;99.90;;;;;;5072749;28;20158;-46
2022/11/28 05:44:23;;;;;;;9.10;6.88;;;7.00;99.90;;;;;;5059221;28;20174;-45
2022/11/28 05:46:48;;;;;;;13.38;7.25;;;7.00;99.90;;;;;;5052602;28;20174;-46
2022/11/28 05:49:14;;;;;;;11.60;7.15;;;7.00;99.90;;;;;;5052487;28;20166;-46
2022/11/28 05:51:39;;;;;;;11.68;7.40;;;7.00;99.90;;;;;;5052834;28;20267;-49
2022/11/28 05:54:05;;;;;;;12.30;7.63;;;7.00;99.90;;;;;;5052572;28;20193;-47
2022/11/28 05:56:31;;;;;;;12.05;7.90;;;7.00;99.90;;;;;;5068934;28;20206;-44
2022/11/28 05:58:57;;;;;;;11.43;7.72;;;7.00;99.90;;;;;;5072491;28;20253;-44
2022/11/28 06:01:25;;;;;;;21.33;10.30;;;7.00;99.90;;;;;;5072751;28;20301;-43
2022/11/28 06:03:56;;;;;;;12.93;8.40;;;7.00;99.90;;;;;;5072850;28;20626;-44
2022/11/28 06:06:22;;;;;;;11.73;8.38;;;7.00;99.90;;;;;;5072683;28;20162;-47
2022/11/28 06:08:50;;;;;;;13.93;7.97;;;7.10;99.90;;;;;;5072144;28;20177;-46
2022/11/28 06:11:16;;;;;;;12.50;8.70;;;7.00;99.90;;;;;;5071917;28;20539;-44
2022/11/28 06:13:43;;;;;;;14.75;8.45;;;7.10;99.90;;;;;;5072429;28;20177;-46
2022/11/28 06:16:10;;;;;;;14.05;8.77;;;7.00;99.90;;;;;;5072040;28;20170;-45
2022/11/28 06:18:37;;;;;;;14.88;8.55;;;7.10;99.90;;;;;;5072023;28;20198;-45
2022/11/28 06:21:04;;;;;;;11.43;8.23;;;7.10;99.90;;;;;;5071285;28;20253;-46
2022/11/28 06:23:30;;;;;;;14.05;8.27;;;7.10;99.90;;;;;;5071883;28;20178;-46
2022/11/28 06:25:57;;;;;;;12.57;8.77;;;7.10;99.90;;;;;;5071629;28;20212;-47
2022/11/28 06:28:23;;;;;;;15.88;9.00;;;7.10;99.90;;;;;;5072172;28;20206;-46
2022/11/28 06:30:48;;;;;;;14.18;8.65;;;7.10;99.90;;;;;;5071882;28;20197;-50
2022/11/28 06:33:14;;;;;;;12.52;8.13;;;7.00;99.90;;;;;;5071550;28;20634;-48
2022/11/28 06:35:39;;;;;;;10.63;8.27;;;7.00;99.90;;;;;;5070091;28;20629;-46
2022/11/28 06:38:05;;;;;;;11.70;8.55;;;7.00;99.90;;;;;;5071405;28;20206;-45
2022/11/28 06:40:31;;;;;;;14.48;8.35;;;7.00;99.90;;;;;;5071307;28;20193;-47
2022/11/28 06:42:56;;;;;;;13.05;8.02;;;6.90;99.90;;;;;;5071440;28;20181;-46
2022/11/28 06:45:22;;;;;;;16.42;7.95;;;7.00;99.90;;;;;;5071818;28;20257;-51
2022/11/28 06:47:48;;;;;;;11.43;7.35;;;7.00;99.90;;;;;;5071441;28;20174;-46
2022/11/28 06:50:13;;;;;;;15.38;8.23;;;7.00;99.90;;;;;;5071553;28;20669;-47
2022/11/28 06:52:39;;;;;;;13.85;8.38;;;7.00;99.90;;;;;;5071419;28;20553;-48
2022/11/28 06:55:05;;;;;;;13.80;7.80;;;7.10;99.90;;;;;;5069585;28;20170;-50
2022/11/28 06:57:31;;;;;;;11.30;7.47;;;7.00;99.90;;;;;;5053031;28;20217;-52
2022/11/28 06:59:57;;;;;;;15.60;8.65;;;7.00;99.90;;;;;;5070916;28;20700;-49
2022/11/28 07:02:23;;;;;;;11.80;7.43;;;7.10;99.90;;;;;;5071517;28;20253;-48
2022/11/28 07:04:49;;;;;;;11.02;7.82;;;7.10;99.90;;;;;;5071195;28;20629;-48
2022/11/28 07:07:15;;;;;;;12.57;8.52;;;7.10;99.90;;;;;;5070959;28;20181;-46
2022/11/28 07:09:41;;;;;;;15.13;7.25;;;7.00;99.90;;;;;;5071088;28;20607;-50
2022/11/28 07:12:06;;;;;;;11.90;7.82;;;7.00;99.90;;;;;;5071009;28;20577;-47
2022/11/28 07:14:33;;;;;;;12.80;8.80;;;7.10;99.90;;;;;;5070929;28;20576;-47
2022/11/28 07:16:58;;;;;;;13.25;8.00;;;7.10;99.90;;;;;;5070965;28;20206;-52
2022/11/28 07:19:24;;;;;;;14.68;9.75;;;7.10;99.90;;;;;;5070843;28;20162;-48
2022/11/28 07:21:50;;;;;;;8.60;6.90;;;7.10;99.90;;;;;;5070888;28;20678;-47
2022/11/28 07:24:18;;;;;;;15.07;8.45;;;7.10;99.90;;;;;;5070447;28;20281;-47
2022/11/28 07:26:45;;;;;;;16.15;8.35;;;7.10;99.90;;;;;;5070892;28;20568;-48
2022/11/28 07:29:18;;;;;;;12.25;7.25;;;7.00;99.90;;;;;;5070630;28;20162;-46
2022/11/28 07:31:44;;;;;;;10.43;7.65;;;7.20;99.90;;;;;;5070329;28;20174;-45
2022/11/28 07:34:10;;;;;;;13.82;8.25;;;7.10;99.90;;;;;;5069831;28;20196;-47
2022/11/28 07:36:35;;;;;;;11.68;8.15;;;7.20;99.90;;;;;;5069469;28;20222;-48
2022/11/28 07:39:03;;;;;;;13.90;8.05;;;7.20;99.90;;;;;;5070515;28;20220;-48
2022/11/28 07:41:30;;;;;;;10.30;7.65;;;7.10;99.90;;;;;;5070345;28;20181;-49
2022/11/28 07:43:58;;;;;;;11.15;7.38;;;7.20;99.90;;;;;;5070286;28;20161;-47
2022/11/28 07:46:25;;;;;;;11.60;8.32;;;7.20;99.90;;;;;;5050672;28;20170;-49
2022/11/28 07:48:51;;;;;;;11.93;7.68;;;7.20;99.90;;;;;;5050679;28;20155;-48
2022/11/28 07:51:20;;;;;;;11.52;7.75;;;7.30;99.90;;;;;;5050381;28;20518;-47
2022/11/28 07:53:46;;;;;;;12.40;7.78;;;7.30;99.90;;;;;;5050299;28;20175;-46
2022/11/28 07:56:15;;;;;;;13.25;7.47;;;7.30;99.90;;;;;;5050295;28;20257;-48
2022/11/28 07:58:42;;;;;;;13.25;7.88;;;7.40;99.90;;;;;;5049900;28;20202;-46
2022/11/28 08:01:13;;;;;;;10.18;7.50;;;7.40;99.90;;;;;;5061788;28;20217;-47
2022/11/28 08:03:38;;;;;;;9.23;6.75;;;7.40;99.90;;;;;;5070001;28;20162;-46
2022/11/28 08:06:05;;;;;;;10.80;7.90;;;7.30;99.90;;;;;;5052132;28;20651;-47
2022/11/28 08:08:31;;;;;;;9.90;7.70;;;7.20;99.90;;;;;;5070096;28;20625;-46
2022/11/28 08:11:01;;;;;;;20.70;10.23;;;7.30;99.90;;;;;;5070304;28;20211;-47
2022/11/28 08:13:27;;;;;;;12.88;7.65;;;7.20;99.90;;;;;;5069761;28;20173;-47
2022/11/28 08:15:53;;;;;;;11.85;8.13;;;7.30;99.90;;;;;;5068636;28;20248;-46
2022/11/28 08:18:19;;;;;;;11.82;7.75;;;7.20;99.90;;;;;;5070502;28;20692;-46
2022/11/28 08:20:44;;;;;;;13.13;8.25;;;7.20;99.90;;;;;;5069900;28;20173;-47
2022/11/28 08:23:10;;;;;;;16.63;9.27;;;7.10;99.90;;;;;;5069822;28;20264;-46
2022/11/28 08:25:35;;;;;;;12.88;9.35;;;7.30;99.90;;;;;;5069635;28;20629;-51
2022/11/28 08:28:01;;;;;;;13.23;8.15;;;7.30;99.90;;;;;;5069822;28;20672;-50
2022/11/28 08:30:27;;;;;;;15.15;9.57;;;7.20;99.90;;;;;;5069779;28;20227;-46
2022/11/28 08:32:52;;;;;;;13.88;9.20;;;7.20;99.90;;;;;;5069767;28;20185;-46
2022/11/28 08:35:18;;;;;;;14.07;9.20;;;7.20;99.90;;;;;;5070104;28;20655;-47
2022/11/28 08:37:44;;;;;;;13.88;8.68;;;7.20;99.90;;;;;;5069423;28;20744;-46
2022/11/28 08:40:10;;;;;;;14.30;9.10;;;7.20;99.90;;;;;;5069993;28;20260;-46
2022/11/28 08:42:35;;;;;;;14.80;8.10;;;7.10;99.90;;;;;;5049897;28;20226;-47
2022/11/28 08:45:01;;;;;;;10.80;8.48;;;7.20;99.90;;;;;;5070636;28;20173;-45
2022/11/28 08:47:26;;;;;;;14.00;9.73;;;7.10;99.90;;;;;;5073497;28;20257;-47
2022/11/28 08:49:52;;;;;;;13.48;8.50;;;7.20;99.90;;;;;;5072502;28;20178;-46
2022/11/28 08:52:17;;;;;;;16.05;8.55;;;8.40;99.90;;;;;;5073883;28;20181;-47
2022/11/28 08:54:43;;;;;;;13.70;9.15;;;7.20;99.90;;;;;;5073472;28;20166;-48
2022/11/28 08:57:09;;;;;;;14.02;9.18;;;7.20;99.90;;;;;;5073377;28;20205;-46
2022/11/28 08:59:34;;;;;;;14.60;8.32;;;7.30;99.90;;;;;;5073364;28;20168;-44
2022/11/28 09:02:00;;;;;;;13.23;8.50;;;7.20;99.90;;;;;;5073167;28;20249;-44
2022/11/28 09:04:26;;;;;;;15.30;9.07;;;7.30;99.90;;;;;;5073161;28;20192;-44
2022/11/28 09:06:52;;;;;;;10.50;8.13;;;7.30;99.90;;;;;;5073615;28;20162;-47
2022/11/28 09:09:18;;;;;;;15.82;9.35;;;7.40;99.90;;;;;;5072378;28;20645;-47
2022/11/28 09:11:44;;;;;;;15.40;9.05;;;7.40;99.90;;;;;;5072891;28;20555;-46
2022/11/28 09:14:09;;;;;;;11.88;8.30;;;7.40;99.90;;;;;;5073066;28;20178;-45
2022/11/28 09:16:38;;;;;;;15.57;8.48;;;7.40;99.90;;;;;;5073009;28;20162;-47
2022/11/28 09:19:04;;;;;;;11.90;8.10;;;7.50;99.90;;;;;;5073298;28;20174;-48
2022/11/28 09:21:29;;;;;;;10.73;7.68;;;7.50;99.90;;;;;;5073263;28;20268;-46
2022/11/28 09:23:55;;;;;;;14.38;8.27;;;7.50;99.90;;;;;;5072935;28;20170;-43
2022/11/28 09:26:24;;;;;;;13.77;7.30;;;7.50;99.90;;;;;;5073533;28;20177;-44
2022/11/28 09:28:49;;;;;;;10.52;6.28;;;7.60;99.90;;;;;;5073264;28;20717;-45
2022/11/28 09:31:16;;;;;;;10.07;6.93;;;7.70;99.90;;;;;;5071664;28;20285;-44
2022/11/28 09:33:43;;;;;;;14.65;6.57;;;7.80;99.90;;;;;;5072731;28;20257;-47
2022/11/28 09:36:20;;;;;;;9.95;5.95;;;7.80;99.90;;;;;;5072638;28;20169;-45
2022/11/28 09:38:46;;;;;;;8.77;5.85;;;7.90;99.90;;;;;;5072940;28;20216;-45
2022/11/28 09:41:27;;;;;;;10.07;6.50;;;7.90;99.90;;;;;;5072643;28;20178;-47
2022/11/28 09:43:57;;;;;;;7.35;5.68;;;8.00;99.90;;;;;;5072458;28;20174;-47
2022/11/28 09:46:28;;;;;;;11.05;6.63;;;8.00;99.90;;;;;;5072629;28;20166;-49
2022/11/28 09:48:59;;;;;;;10.27;5.95;;;8.10;99.90;;;;;;5072507;28;20173;-48
2022/11/28 09:51:28;;;;;;;10.23;5.45;;;8.20;99.90;;;;;;5072659;28;20331;-46
2022/11/28 09:54:11;;;;;;;8.88;5.30;;;8.10;99.90;;;;;;5072301;28;20382;-45
2022/11/28 09:56:37;;;;;;;8.20;5.90;;;8.20;99.90;;;;;;5071529;28;20195;-48
2022/11/28 09:59:19;;;;;;;7.47;6.00;;;8.20;99.90;;;;;;5072440;28;20521;-47
2022/11/28 10:01:59;;;;;;;7.20;5.35;;;8.30;99.90;;;;;;5072102;28;20214;-49
2022/11/28 10:04:54;;;;;;;7.63;5.88;;;8.30;99.90;;;;;;5072201;28;20181;-48
2022/11/28 10:07:41;;;;;;;9.15;6.22;;;8.40;99.90;;;;;;5072587;28;20178;-47
2022/11/28 10:10:22;;;;;;;8.30;6.25;;;8.40;99.90;;;;;;5072119;28;20169;-53
2022/11/28 10:13:15;;;;;;;12.63;8.10;;;8.50;99.90;;;;;;5072573;28;20174;-47
2022/11/28 10:15:50;;;;;;;8.43;5.95;;;8.60;99.90;;;;;;5071797;28;20634;-48
2022/11/28 10:18:40;;;;;;;11.30;6.95;;;8.50;99.90;;;;;;5071716;28;20236;-46
2022/11/28 10:21:45;;;;;;;8.80;5.28;;;8.60;99.90;;;;;;5071686;28;20171;-46
2022/11/28 10:24:19;;;;;;;10.73;5.88;;;8.60;99.90;;;;;;5071044;28;20205;-46
2022/11/28 10:26:52;;;;;;;7.80;5.55;;;8.60;99.90;;;;;;5071734;28;20182;-45
2022/11/28 10:29:32;;;;;;;8.65;5.85;;;8.70;99.90;;;;;;5072145;28;20280;-47
2022/11/28 10:32:01;;;;;;;11.00;7.53;;;8.70;99.90;;;;;;5071658;28;20166;-48
2022/11/28 10:34:31;;;;;;;10.35;7.07;;;8.80;99.90;;;;;;5071553;28;20170;-46
2022/11/28 10:36:56;;;;;;;24.70;13.73;;;8.80;99.90;;;;;;5071291;28;20202;-48
2022/11/28 10:39:24;;;;;;;9.80;7.00;;;8.90;99.90;;;;;;5053540;28;20166;-46
2022/11/28 10:42:22;;;;;;;12.70;7.30;;;8.80;99.90;;;;;;5072097;28;20517;-46
2022/11/28 10:45:01;;;;;;;9.82;6.13;;;8.90;99.90;;;;;;5057645;28;20669;-46
2022/11/28 10:48:05;;;;;;;10.75;6.68;;;8.80;99.90;;;;;;5071320;28;20162;-48
2022/11/28 10:50:48;;;;;;;63.17;37.28;;;8.90;99.90;;;;;;5071039;28;20641;-48
2022/11/28 10:53:28;;;;;;;13.73;9.15;;;8.70;99.90;;;;;;5071048;28;20176;-48
2022/11/28 10:56:21;;;;;;;19.17;11.05;;;8.60;99.90;;;;;;5070800;28;20178;-49
2022/11/28 10:58:53;;;;;;;17.15;11.27;;;8.50;99.90;;;;;;5071398;28;20220;-48
2022/11/28 11:01:19;;;;;;;19.13;10.82;;;8.50;99.90;;;;;;5071291;28;20228;-44
2022/11/28 11:03:46;;;;;;;19.45;11.32;;;8.40;99.90;;;;;;5071110;28;20166;-50
2022/11/28 11:06:12;;;;;;;20.48;13.55;;;8.50;99.90;;;;;;5070870;28;20170;-45
2022/11/28 11:08:39;;;;;;;13.73;9.70;;;8.40;99.90;;;;;;5070923;28;20219;-43
2022/11/28 11:11:29;;;;;;;22.30;13.32;;;8.30;99.90;;;;;;5070945;28;20573;-44
2022/11/28 11:13:54;;;;;;;15.13;10.10;;;8.40;99.90;;;;;;5071069;28;20485;-41
2022/11/28 11:16:20;;;;;;;49.33;28.60;;;8.40;99.90;;;;;;5071188;28;20162;-45
2022/11/28 11:18:46;;;;;;;14.60;10.15;;;8.40;99.90;;;;;;5070848;28;20208;-44
2022/11/28 11:21:26;;;;;;;17.33;11.05;;;8.40;99.90;;;;;;5070865;28;21061;-43
2022/11/28 11:24:24;;;;;;;37.13;17.65;;;8.30;99.90;;;;;;5070874;28;20173;-47
2022/11/28 11:26:50;;;;;;;25.92;18.27;;;8.30;99.90;;;;;;5026268;28;20178;-45
2022/11/28 11:29:23;;;;;;;21.02;16.63;;;8.40;99.90;;;;;;5070706;28;20220;-46
2022/11/28 11:31:52;;;;;;;27.67;14.38;;;8.30;99.90;;;;;;5070722;28;20186;-46
2022/11/28 11:34:21;;;;;;;23.48;13.93;;;8.30;99.90;;;;;;5066496;28;20166;-46
2022/11/28 11:36:47;;;;;;;26.55;13.57;;;8.40;99.90;;;;;;5050459;28;20186;-48
2022/11/28 11:39:13;;;;;;;26.95;17.92;;;8.30;99.90;;;;;;5050292;28;20185;-47
2022/11/28 11:41:44;;;;;;;31.25;21.08;;;8.30;99.90;;;;;;5050306;28;20167;-46
2022/11/28 11:44:13;;;;;;;20.15;12.10;;;8.30;99.90;;;;;;5050598;28;20189;-45
2022/11/28 11:46:54;;;;;;;26.17;19.15;;;8.30;99.90;;;;;;5049969;28;20159;-48
2022/11/28 11:49:43;;;;;;;13.98;9.07;;;8.40;99.90;;;;;;5050723;28;20169;-45
2022/11/28 11:52:12;;;;;;;30.00;18.27;;;8.40;99.90;;;;;;5050717;28;20253;-46
2022/11/28 11:54:58;;;;;;;20.08;12.85;;;8.40;99.90;;;;;;5050704;28;20171;-46
2022/11/28 11:57:36;;;;;;;28.67;16.25;;;8.40;99.90;;;;;;5036231;28;20210;-49
2022/11/28 12:00:16;;;;;;;12.70;8.63;;;8.40;99.90;;;;;;5050182;28;20174;-47
2022/11/28 12:03:09;;;;;;;21.63;13.88;;;8.40;99.90;;;;;;5049171;28;20175;-46
2022/11/28 12:05:49;;;;;;;18.63;13.05;;;8.40;99.90;;;;;;5049002;28;20169;-46
2022/11/28 12:08:19;;;;;;;66.30;35.92;;;8.40;99.90;;;;;;5052186;28;20579;-47
2022/11/28 12:10:50;;;;;;;18.00;12.43;;;8.40;99.90;;;;;;5048975;28;20185;-47
2022/11/28 12:13:19;;;;;;;16.38;11.50;;;8.40;99.90;;;;;;5048776;28;20167;-47
2022/11/28 12:15:50;;;;;;;19.73;11.27;;;8.50;99.90;;;;;;5048724;28;20205;-47
2022/11/28 12:18:34;;;;;;;16.08;11.73;;;8.40;99.90;;;;;;5048196;28;20213;-51
2022/11/28 12:21:13;;;;;;;18.80;12.95;;;8.40;99.90;;;;;;5050089;28;20163;-51
2022/11/28 12:23:59;;;;;;;15.63;10.18;;;8.50;99.90;;;;;;5050153;28;20657;-47
2022/11/28 12:26:49;;;;;;;20.00;14.02;;;8.50;99.90;;;;;;5049915;28;20163;-49
2022/11/28 12:29:41;;;;;;;20.20;14.85;;;8.50;99.90;;;;;;5049680;28;20163;-47
2022/11/28 12:32:18;;;;;;;28.90;16.60;;;8.60;99.90;;;;;;5050005;28;20277;-46
2022/11/28 12:35:12;;;;;;;19.70;11.18;;;8.60;99.90;;;;;;5054959;28;20181;-46
2022/11/28 12:37:52;;;;;;;15.77;10.35;;;8.60;99.90;;;;;;5055690;28;20201;-47
2022/11/28 12:40:17;;;;;;;21.77;12.25;;;8.70;99.90;;;;;;5058921;28;20166;-47
2022/11/28 12:42:52;;;;;;;25.08;13.07;;;8.70;99.90;;;;;;5051549;28;20174;-47
2022/11/28 12:45:30;;;;;;;14.07;10.48;;;8.70;99.90;;;;;;5049677;28;20242;-48
2022/11/28 12:48:14;;;;;;;19.33;11.13;;;8.70;99.90;;;;;;5049486;28;20174;-47
2022/11/28 12:50:47;;;;;;;49.75;31.40;;;8.80;99.90;;;;;;5049702;28;20615;-47
2022/11/28 12:53:43;;;;;;;47.92;29.70;;;8.90;99.90;;;;;;5049489;28;20632;-47
2022/11/28 12:56:33;;;;;;;17.58;13.10;;;8.90;99.90;;;;;;5049490;28;20201;-44
2022/11/28 12:59:10;;;;;;;13.27;8.40;;;8.90;99.90;;;;;;5049526;28;20206;-48
2022/11/28 13:02:09;;;;;;;11.85;6.95;;;8.90;99.90;;;;;;5049387;28;20226;-46
2022/11/28 13:04:37;;;;;;;8.40;6.72;;;9.00;99.90;;;;;;5049508;28;20171;-49
2022/11/28 13:07:46;;;;;;;9.27;5.85;;;8.90;99.90;;;;;;5049737;28;20538;-48
2022/11/28 13:10:22;;;;;;;9.23;6.38;;;8.90;99.90;;;;;;5016574;28;20207;-49
2022/11/28 13:13:24;;;;;;;13.98;10.00;;;8.90;99.90;;;;;;5049928;28;20159;-49